createdAt,value
2022-11-27T00:01:21.897Z,41.63
2022-11-27T00:03:49.532Z,32.20
2022-11-27T00:06:19.371Z,34.30
2022-11-27T00:11:15.970Z,29.90
2022-11-27T00:16:09.914Z,39.05
2022-11-27T00:18:36.748Z,34.00
2022-11-27T00:21:08.000Z,36.95
2022-11-27T00:23:36.503Z,34.10
2022-11-27T00:26:04.482Z,35.78
2022-11-27T00:28:31.740Z,28.77
2022-11-27T00:31:00.236Z,32.90
2022-11-27T00:33:26.853Z,32.97
2022-11-27T00:35:53.741Z,36.53
2022-11-27T00:38:20.599Z,31.13
2022-11-27T00:40:47.852Z,41.67
2022-11-27T00:43:14.507Z,30.85
2022-11-27T00:45:41.106Z,37.00
2022-11-27T00:48:07.730Z,36.20
2022-11-27T00:50:34.337Z,39.83
2022-11-27T00:53:01.166Z,35.03
2022-11-27T00:55:27.767Z,35.53
2022-11-27T00:57:54.305Z,31.35
2022-11-27T01:00:22.175Z,34.38
2022-11-27T01:02:48.807Z,36.08
2022-11-27T01:05:15.468Z,33.90
2022-11-27T01:07:42.439Z,36.25
2022-11-27T01:10:09.635Z,27.50
2022-11-27T01:12:36.266Z,38.85
2022-11-27T01:15:03.996Z,31.67
2022-11-27T01:17:30.601Z,33.28
2022-11-27T01:19:57.226Z,31.63
2022-11-27T01:22:23.770Z,37.47
2022-11-27T01:24:50.384Z,37.50
2022-11-27T01:27:16.979Z,37.33
2022-11-27T01:29:43.666Z,35.60
2022-11-27T01:32:10.275Z,27.13
2022-11-27T01:34:36.857Z,35.42
2022-11-27T01:37:03.494Z,39.03
2022-11-27T01:39:30.124Z,29.02
2022-11-27T01:41:56.749Z,38.97
2022-11-27T01:44:23.248Z,24.90
2022-11-27T01:47:07.136Z,34.35
2022-11-27T01:49:38.779Z,33.22
2022-11-27T01:52:15.974Z,36.08
2022-11-27T01:54:42.772Z,45.47
2022-11-27T01:57:18.980Z,39.10
2022-11-27T01:59:48.074Z,33.28
2022-11-27T02:02:14.966Z,36.10
2022-11-27T02:04:41.784Z,35.28
2022-11-27T02:07:08.587Z,37.15
2022-11-27T02:09:35.461Z,40.03
2022-11-27T02:12:02.405Z,34.85
2022-11-27T02:14:53.814Z,34.22
2022-11-27T02:17:28.367Z,32.13
2022-11-27T02:20:18.741Z,39.75
2022-11-27T02:23:13.307Z,34.58
2022-11-27T02:25:52.470Z,39.47
2022-11-27T02:28:48.175Z,31.33
2022-11-27T02:31:21.865Z,33.00
2022-11-27T02:33:55.130Z,35.05
2022-11-27T02:36:29.588Z,31.60
2022-11-27T02:39:05.394Z,35.20
2022-11-27T02:41:53.912Z,27.30
2022-11-27T02:44:22.732Z,27.15
2022-11-27T02:46:50.047Z,31.57
2022-11-27T02:49:18.986Z,29.92
2022-11-27T02:51:51.030Z,28.27
2022-11-27T02:54:23.472Z,27.90
2022-11-27T02:56:53.006Z,28.95
2022-11-27T02:59:21.875Z,27.33
2022-11-27T03:01:53.731Z,23.67
2022-11-27T03:04:28.356Z,30.27
2022-11-27T03:06:59.314Z,34.13
2022-11-27T03:09:34.352Z,33.63
2022-11-27T03:12:02.801Z,28.95
2022-11-27T03:14:29.584Z,27.02
2022-11-27T03:17:02.814Z,27.27
2022-11-27T03:20:09.862Z,26.60
2022-11-27T03:22:36.498Z,25.33
2022-11-27T03:25:04.093Z,26.65
2022-11-27T03:27:37.502Z,26.55
2022-11-27T03:30:06.974Z,34.85
2022-11-27T03:32:33.852Z,26.52
2022-11-27T03:35:00.840Z,25.90
2022-11-27T03:37:28.295Z,30.10
2022-11-27T03:39:55.226Z,31.75
2022-11-27T03:42:53.048Z,30.20
2022-11-27T03:45:32.971Z,26.17
2022-11-27T03:48:02.575Z,31.13
2022-11-27T03:50:54.967Z,30.08
2022-11-27T03:53:33.649Z,26.77
2022-11-27T03:56:33.915Z,23.48
2022-11-27T03:59:07.651Z,26.13
2022-11-27T04:01:34.506Z,25.42
2022-11-27T04:04:01.304Z,24.48
2022-11-27T04:06:27.986Z,25.75
2022-11-27T04:08:54.647Z,23.10
2022-11-27T04:11:21.249Z,22.05
2022-11-27T04:13:47.898Z,23.80
2022-11-27T04:16:14.551Z,22.40
2022-11-27T04:18:41.218Z,18.38
2022-11-27T04:21:07.833Z,19.27
2022-11-27T04:23:34.578Z,21.13
2022-11-27T04:26:01.320Z,20.35
2022-11-27T04:28:27.860Z,20.88
2022-11-27T04:30:54.875Z,18.20
2022-11-27T04:33:22.289Z,21.30
2022-11-27T04:35:50.520Z,19.08
2022-11-27T04:38:17.917Z,18.63
2022-11-27T04:40:44.754Z,17.50
2022-11-27T04:43:11.690Z,19.55
2022-11-27T04:45:38.572Z,20.05
2022-11-27T04:48:05.675Z,16.27
2022-11-27T04:50:32.249Z,16.67
2022-11-27T04:52:59.910Z,14.65
2022-11-27T04:55:26.831Z,15.55
2022-11-27T04:57:53.362Z,15.73
2022-11-27T05:00:20.736Z,14.75
2022-11-27T05:02:47.430Z,16.85
2022-11-27T05:05:14.113Z,15.32
2022-11-27T05:07:40.739Z,14.52
2022-11-27T05:10:08.154Z,14.35
2022-11-27T05:12:34.749Z,14.60
2022-11-27T05:15:04.465Z,13.77
2022-11-27T05:17:31.912Z,16.23
2022-11-27T05:19:59.640Z,19.63
2022-11-27T05:22:26.211Z,16.38
2022-11-27T05:24:52.771Z,16.38
2022-11-27T05:27:19.431Z,17.05
2022-11-27T05:29:46.960Z,16.52
2022-11-27T05:32:13.701Z,17.45
2022-11-27T05:34:40.548Z,15.82
2022-11-27T05:37:07.714Z,17.55
2022-11-27T05:39:34.315Z,15.80
2022-11-27T05:42:00.998Z,16.83
2022-11-27T05:44:27.648Z,18.90
2022-11-27T05:46:54.408Z,17.00
2022-11-27T05:49:21.132Z,20.58
2022-11-27T05:51:51.407Z,18.02
2022-11-27T05:54:19.085Z,19.63
2022-11-27T05:56:45.749Z,27.02
2022-11-27T05:59:12.734Z,18.63
2022-11-27T06:01:39.421Z,19.02
2022-11-27T06:04:06.223Z,17.85
2022-11-27T06:06:32.874Z,19.13
2022-11-27T06:08:59.484Z,18.38
2022-11-27T06:11:26.162Z,18.65
2022-11-27T06:13:52.876Z,15.85
2022-11-27T06:16:23.921Z,18.40
2022-11-27T06:18:52.492Z,16.98
2022-11-27T06:21:20.673Z,14.48
2022-11-27T06:23:47.641Z,21.67
2022-11-27T06:26:24.776Z,16.77
2022-11-27T06:28:52.062Z,15.75
2022-11-27T06:31:21.585Z,16.15
2022-11-27T06:33:49.744Z,15.63
2022-11-27T06:36:17.497Z,16.08
2022-11-27T06:38:45.070Z,15.23
2022-11-27T06:41:14.966Z,15.57
2022-11-27T06:43:41.915Z,14.82
2022-11-27T06:46:12.080Z,14.90
2022-11-27T06:48:38.686Z,20.55
2022-11-27T06:51:07.439Z,17.85
2022-11-27T06:53:38.031Z,15.00
2022-11-27T06:56:06.919Z,14.65
2022-11-27T06:58:33.457Z,17.23
2022-11-27T07:01:01.346Z,13.43
2022-11-27T07:03:28.358Z,18.15
2022-11-27T07:05:55.093Z,16.55
2022-11-27T07:08:22.535Z,16.20
2022-11-27T07:10:49.288Z,16.98
2022-11-27T07:13:15.962Z,18.52
2022-11-27T07:15:42.966Z,15.18
2022-11-27T07:18:09.978Z,13.60
2022-11-27T07:20:36.720Z,19.45
2022-11-27T07:23:03.398Z,15.55
2022-11-27T07:25:29.980Z,17.15
2022-11-27T07:27:56.536Z,13.32
2022-11-27T07:30:23.160Z,12.55
2022-11-27T07:32:49.704Z,17.48
2022-11-27T07:35:16.422Z,18.02
2022-11-27T07:37:42.971Z,14.05
2022-11-27T07:40:09.627Z,16.25
2022-11-27T07:42:38.681Z,13.27
2022-11-27T07:45:08.397Z,13.10
2022-11-27T07:47:34.972Z,11.50
2022-11-27T07:50:01.775Z,15.88
2022-11-27T07:52:28.375Z,13.70
2022-11-27T07:54:55.058Z,16.27
2022-11-27T07:57:21.872Z,16.45
2022-11-27T07:59:48.558Z,19.58
2022-11-27T08:02:15.346Z,12.52
2022-11-27T08:04:42.393Z,22.17
2022-11-27T08:07:09.230Z,15.27
2022-11-27T08:09:35.984Z,15.05
2022-11-27T08:12:02.621Z,16.38
2022-11-27T08:14:29.258Z,18.90
2022-11-27T08:16:56.263Z,12.95
2022-11-27T08:19:23.092Z,18.48
2022-11-27T08:21:50.067Z,11.82
2022-11-27T08:24:16.740Z,16.27
2022-11-27T08:26:43.779Z,13.05
2022-11-27T08:29:13.394Z,14.25
2022-11-27T08:31:40.320Z,13.38
2022-11-27T08:34:06.996Z,11.07
2022-11-27T08:36:33.712Z,15.60
2022-11-27T08:39:01.328Z,10.85
2022-11-27T08:41:28.163Z,14.65
2022-11-27T08:43:54.851Z,13.85
2022-11-27T08:46:21.437Z,13.45
2022-11-27T08:48:48.286Z,17.63
2022-11-27T08:51:15.622Z,14.70
2022-11-27T08:53:45.495Z,15.20
2022-11-27T08:56:18.528Z,12.45
2022-11-27T08:58:45.839Z,12.32
2022-11-27T09:01:18.391Z,12.27
2022-11-27T09:03:45.136Z,18.88
2022-11-27T09:06:15.569Z,17.27
2022-11-27T09:08:43.670Z,16.23
2022-11-27T09:11:12.313Z,17.30
2022-11-27T09:13:40.356Z,14.82
2022-11-27T09:16:18.814Z,14.88
2022-11-27T09:18:47.325Z,14.13
2022-11-27T09:21:17.924Z,15.07
2022-11-27T09:23:44.721Z,11.82
2022-11-27T09:26:17.240Z,12.63
2022-11-27T09:28:44.773Z,19.00
2022-11-27T09:31:19.649Z,11.98
2022-11-27T09:33:46.558Z,14.50
2022-11-27T09:36:16.808Z,15.50
2022-11-27T09:38:46.436Z,11.80
2022-11-27T09:41:22.493Z,15.60
2022-11-27T09:43:52.398Z,14.30
2022-11-27T09:46:40.987Z,18.60
2022-11-27T09:49:12.536Z,15.57
2022-11-27T09:51:47.044Z,15.98
2022-11-27T09:54:32.316Z,12.07
2022-11-27T09:56:59.517Z,13.07
2022-11-27T09:59:35.541Z,19.00
2022-11-27T10:02:02.312Z,15.85
2022-11-27T10:04:36.186Z,13.70
2022-11-27T10:07:23.757Z,12.82
2022-11-27T10:10:35.617Z,14.57
2022-11-27T10:13:25.633Z,11.93
2022-11-27T10:16:04.199Z,13.98
2022-11-27T10:18:54.680Z,13.07
2022-11-27T10:21:45.574Z,10.65
2022-11-27T10:24:44.323Z,12.65
2022-11-27T10:27:23.257Z,12.80
2022-11-27T10:29:55.746Z,15.65
2022-11-27T10:32:53.986Z,11.60
2022-11-27T10:35:20.138Z,13.23
2022-11-27T10:38:13.097Z,15.35
2022-11-27T10:40:55.556Z,10.48
2022-11-27T10:43:24.425Z,12.07
2022-11-27T10:45:56.732Z,8.52
2022-11-27T10:48:25.101Z,11.32
2022-11-27T10:50:51.987Z,11.10
2022-11-27T10:53:27.534Z,14.38
2022-11-27T10:56:06.245Z,10.23
2022-11-27T10:58:47.444Z,10.82
2022-11-27T11:01:25.250Z,12.07
2022-11-27T11:04:24.356Z,11.07
2022-11-27T11:06:52.180Z,12.32
2022-11-27T11:09:31.872Z,9.02
2022-11-27T11:12:21.288Z,12.68
2022-11-27T11:14:55.749Z,11.85
2022-11-27T11:17:35.119Z,11.07
2022-11-27T11:20:18.821Z,12.13
2022-11-27T11:22:47.379Z,10.57
2022-11-27T11:25:19.198Z,10.20
2022-11-27T11:27:47.946Z,11.43
2022-11-27T11:30:28.747Z,12.18
2022-11-27T11:33:14.071Z,11.27
2022-11-27T11:36:06.970Z,10.82
2022-11-27T11:38:33.831Z,12.38
2022-11-27T11:41:04.675Z,9.48
2022-11-27T11:43:35.706Z,12.65
2022-11-27T11:46:19.233Z,11.63
2022-11-27T11:48:58.568Z,14.45
2022-11-27T11:52:09.485Z,6.47
2022-11-27T11:55:02.801Z,12.05
2022-11-27T11:57:41.339Z,11.30
2022-11-27T12:00:53.143Z,9.63
2022-11-27T12:03:38.533Z,8.50
2022-11-27T12:06:20.218Z,7.97
2022-11-27T12:09:19.909Z,11.73
2022-11-27T12:14:22.194Z,13.38
2022-11-27T12:17:13.541Z,11.43
2022-11-27T12:20:03.183Z,10.57
2022-11-27T12:25:12.940Z,5.88
2022-11-27T12:27:51.980Z,4.70
2022-11-27T12:30:22.112Z,3.22
2022-11-27T12:32:51.834Z,6.35
2022-11-27T12:38:25.623Z,4.60
2022-11-27T12:41:16.048Z,6.85
2022-11-27T12:43:50.719Z,6.50
2022-11-27T12:46:37.577Z,6.60
2022-11-27T12:49:16.886Z,7.22
2022-11-27T12:51:51.785Z,9.65
2022-11-27T12:54:26.188Z,10.82
2022-11-27T12:57:00.366Z,10.20
2022-11-27T12:59:56.980Z,10.88
2022-11-27T13:02:42.359Z,12.55
2022-11-27T13:05:42.423Z,10.70
2022-11-27T13:08:16.149Z,8.85
2022-11-27T13:10:54.236Z,12.10
2022-11-27T13:13:44.226Z,14.23
2022-11-27T13:16:27.585Z,12.68
2022-11-27T13:19:12.158Z,14.07
2022-11-27T13:21:43.588Z,12.88
2022-11-27T13:24:20.832Z,16.02
2022-11-27T13:27:05.768Z,21.60
2022-11-27T13:29:53.286Z,14.90
2022-11-27T13:32:33.566Z,14.40
2022-11-27T13:35:22.013Z,16.75
2022-11-27T13:37:55.296Z,12.32
2022-11-27T13:40:27.329Z,13.77
2022-11-27T13:42:57.253Z,11.77
2022-11-27T13:45:24.303Z,10.85
2022-11-27T13:48:01.051Z,11.50
2022-11-27T13:50:31.847Z,13.13
2022-11-27T13:53:12.066Z,13.68
2022-11-27T13:55:52.221Z,9.88
2022-11-27T13:58:51.607Z,13.93
2022-11-27T14:01:24.085Z,11.52
2022-11-27T14:03:51.526Z,13.55
2022-11-27T14:06:39.075Z,12.13
2022-11-27T14:09:07.408Z,9.88
2022-11-27T14:11:41.349Z,14.10
2022-11-27T14:14:20.849Z,13.52
2022-11-27T14:17:25.280Z,13.32
2022-11-27T14:20:02.763Z,10.77
2022-11-27T14:23:07.215Z,15.48
2022-11-27T14:25:33.797Z,13.05
2022-11-27T14:28:26.257Z,11.10
2022-11-27T14:31:02.157Z,12.85
2022-11-27T14:33:47.501Z,9.27
2022-11-27T14:36:34.713Z,14.30
2022-11-27T14:39:24.605Z,12.52
2022-11-27T14:42:27.909Z,10.73
2022-11-27T14:45:08.754Z,11.32
2022-11-27T14:47:41.041Z,12.38
2022-11-27T14:50:17.584Z,10.50
2022-11-27T14:52:50.945Z,11.13
2022-11-27T14:55:19.804Z,13.27
2022-11-27T14:57:59.358Z,10.45
2022-11-27T15:00:34.180Z,11.85
2022-11-27T15:03:13.171Z,12.60
2022-11-27T15:05:40.126Z,11.68
2022-11-27T15:08:10.501Z,10.27
2022-11-27T15:10:48.534Z,16.15
2022-11-27T15:13:31.627Z,11.98
2022-11-27T15:16:15.016Z,11.50
2022-11-27T15:18:43.889Z,11.35
2022-11-27T15:21:20.419Z,15.95
2022-11-27T15:23:50.351Z,12.32
2022-11-27T15:26:47.489Z,14.75
2022-11-27T15:29:38.477Z,16.58
2022-11-27T15:32:24.619Z,12.38
2022-11-27T15:34:54.481Z,14.77
2022-11-27T15:37:35.401Z,16.83
2022-11-27T15:40:08.039Z,16.83
2022-11-27T15:42:34.942Z,16.48
2022-11-27T15:45:07.393Z,13.65
2022-11-27T15:47:37.332Z,15.38
2022-11-27T15:50:06.673Z,13.48
2022-11-27T15:52:33.699Z,15.05
2022-11-27T15:55:03.073Z,15.70
2022-11-27T15:57:36.936Z,13.98
2022-11-27T16:00:04.764Z,21.15
2022-11-27T16:02:38.378Z,14.30
2022-11-27T16:05:12.402Z,18.60
2022-11-27T16:07:39.801Z,12.70
2022-11-27T16:10:07.075Z,24.02
2022-11-27T16:12:39.791Z,19.50
2022-11-27T16:15:07.876Z,21.60
2022-11-27T16:17:35.097Z,19.02
2022-11-27T16:20:02.003Z,19.38
2022-11-27T16:22:28.694Z,22.92
2022-11-27T16:24:55.449Z,16.02
2022-11-27T16:27:22.205Z,16.80
2022-11-27T16:29:49.206Z,18.38
2022-11-27T16:32:15.911Z,21.00
2022-11-27T16:34:42.734Z,13.63
2022-11-27T16:37:18.104Z,18.38
2022-11-27T16:39:45.532Z,23.73
2022-11-27T16:42:12.547Z,28.98
2022-11-27T16:44:39.481Z,19.48
2022-11-27T16:47:06.475Z,22.38
2022-11-27T16:49:33.367Z,25.38
2022-11-27T16:52:00.717Z,22.42
2022-11-27T16:54:28.627Z,23.63
2022-11-27T16:56:56.116Z,22.50
2022-11-27T16:59:23.098Z,15.63
2022-11-27T17:01:49.919Z,19.27
2022-11-27T17:04:19.551Z,21.05
2022-11-27T17:06:48.115Z,22.15
2022-11-27T17:09:15.736Z,21.98
2022-11-27T17:11:45.502Z,20.15
2022-11-27T17:14:12.495Z,18.67
2022-11-27T17:16:41.267Z,29.30
2022-11-27T17:21:41.491Z,22.42
2022-11-27T17:24:15.327Z,23.58
2022-11-27T17:26:47.297Z,26.95
2022-11-27T17:29:16.880Z,26.58
2022-11-27T17:31:43.676Z,23.35
2022-11-27T17:34:17.675Z,21.15
2022-11-27T17:36:45.323Z,18.67
2022-11-27T17:39:14.481Z,27.02
2022-11-27T17:41:44.373Z,22.42
2022-11-27T17:44:14.183Z,24.02
2022-11-27T17:49:08.431Z,18.00
2022-11-27T17:51:39.319Z,19.05
2022-11-27T17:54:06.511Z,22.75
2022-11-27T17:56:34.906Z,19.70
2022-11-27T17:59:02.996Z,19.63
2022-11-27T18:01:30.778Z,20.75
2022-11-27T18:04:03.599Z,20.95
2022-11-27T18:09:00.789Z,24.35
2022-11-27T18:11:31.132Z,20.65
2022-11-27T18:14:01.151Z,32.58
2022-11-27T18:19:11.569Z,25.73
2022-11-27T18:21:39.483Z,43.58
2022-11-27T18:24:22.904Z,21.02
2022-11-27T18:29:39.908Z,22.95
2022-11-27T18:32:14.027Z,24.35
2022-11-27T18:34:41.701Z,25.27
2022-11-27T18:37:08.805Z,29.63
2022-11-27T18:39:37.166Z,21.38
2022-11-27T18:42:05.350Z,25.33
2022-11-27T18:44:37.249Z,24.43
2022-11-27T18:47:10.672Z,22.17
2022-11-27T18:49:38.999Z,21.50
2022-11-27T18:52:07.027Z,19.10
2022-11-27T18:54:34.005Z,25.25
2022-11-27T18:57:01.694Z,19.50
2022-11-27T18:59:30.571Z,30.38
2022-11-27T19:02:11.511Z,15.50
2022-11-27T19:04:39.377Z,17.88
2022-11-27T19:07:07.264Z,21.02
2022-11-27T19:09:33.987Z,19.48
2022-11-27T19:12:00.893Z,18.90
2022-11-27T19:14:28.333Z,18.48
2022-11-27T19:16:55.219Z,16.10
2022-11-27T19:22:15.630Z,15.50
2022-11-27T19:24:44.960Z,18.33
2022-11-27T19:27:13.023Z,15.18
2022-11-27T19:29:40.372Z,16.38
2022-11-27T19:32:07.328Z,19.38
2022-11-27T19:34:34.418Z,18.48
2022-11-27T19:37:07.753Z,19.58
2022-11-27T19:39:34.711Z,16.70
2022-11-27T19:42:03.886Z,16.80
2022-11-27T19:44:30.945Z,17.25
2022-11-27T19:46:57.701Z,16.50
2022-11-27T19:49:26.061Z,15.88
2022-11-27T19:51:55.818Z,17.10
2022-11-27T19:54:23.792Z,18.70
2022-11-27T19:56:51.209Z,21.42
2022-11-27T19:59:24.260Z,18.75
2022-11-27T20:01:53.542Z,21.05
2022-11-27T20:04:25.426Z,21.05
2022-11-27T20:06:53.197Z,26.27
2022-11-27T20:09:23.481Z,16.35
2022-11-27T20:11:53.619Z,18.73
2022-11-27T20:14:22.014Z,20.52
2022-11-27T20:16:50.525Z,20.45
2022-11-27T20:19:20.876Z,21.00
2022-11-27T20:21:50.657Z,20.52
2022-11-27T20:24:22.557Z,20.98
2022-11-27T20:26:52.436Z,18.27
2022-11-27T20:29:24.084Z,18.17
2022-11-27T20:31:51.236Z,23.25
2022-11-27T20:34:21.128Z,26.33
2022-11-27T20:36:48.926Z,21.45
2022-11-27T20:39:20.821Z,24.85
2022-11-27T20:41:52.011Z,23.20
2022-11-27T20:44:25.437Z,23.55
2022-11-27T20:46:54.623Z,23.67
2022-11-27T20:51:50.815Z,22.20
2022-11-27T20:54:22.985Z,22.23
2022-11-27T20:56:51.172Z,23.30
2022-11-27T20:59:19.073Z,23.02
2022-11-27T21:01:48.636Z,17.25
2022-11-27T21:04:23.157Z,21.15
2022-11-27T21:06:50.903Z,25.85
2022-11-27T21:09:21.945Z,20.40
2022-11-27T21:11:48.941Z,21.85
2022-11-27T21:14:16.586Z,21.45
2022-11-27T21:16:51.507Z,20.60
2022-11-27T21:19:27.890Z,22.98
2022-11-27T21:21:56.645Z,22.13
2022-11-27T21:24:27.423Z,20.27
2022-11-27T21:26:55.270Z,25.55
2022-11-27T21:29:25.592Z,19.00
2022-11-27T21:31:54.014Z,22.50
2022-11-27T21:34:21.025Z,16.50
2022-11-27T21:36:49.583Z,17.67
2022-11-27T21:39:23.831Z,13.90
2022-11-27T21:41:54.746Z,12.52
2022-11-27T21:44:24.697Z,12.32
2022-11-27T21:46:52.222Z,13.40
2022-11-27T21:49:20.520Z,16.50
2022-11-27T21:51:52.019Z,12.02
2022-11-27T21:54:19.494Z,13.95
2022-11-27T21:56:46.439Z,13.48
2022-11-27T21:59:14.160Z,14.95
2022-11-27T22:01:41.160Z,13.15
2022-11-27T22:04:07.848Z,15.73
2022-11-27T22:06:40.323Z,11.85
2022-11-27T22:09:13.355Z,13.45
2022-11-27T22:11:42.571Z,14.60
2022-11-27T22:14:09.946Z,20.00
2022-11-27T22:16:44.739Z,15.38
2022-11-27T22:19:12.383Z,10.05
2022-11-27T22:21:39.146Z,11.80
2022-11-27T22:24:12.052Z,12.25
2022-11-27T22:26:49.044Z,12.90
2022-11-27T22:29:16.829Z,13.15
2022-11-27T22:31:46.346Z,15.95
2022-11-27T22:34:18.187Z,13.23
2022-11-27T22:36:49.801Z,11.35
2022-11-27T22:39:19.731Z,12.02
2022-11-27T22:41:46.981Z,9.98
2022-11-27T22:44:21.375Z,11.85
2022-11-27T22:46:49.207Z,7.65
2022-11-27T22:49:18.141Z,7.15
2022-11-27T22:51:46.040Z,9.70
2022-11-27T22:54:17.218Z,13.15
2022-11-27T22:56:48.898Z,11.00
2022-11-27T22:59:34.729Z,10.25
2022-11-27T23:02:04.843Z,6.47
2022-11-27T23:04:32.752Z,13.52
2022-11-27T23:07:00.004Z,9.63
2022-11-27T23:09:28.197Z,7.47
2022-11-27T23:11:56.502Z,6.60
2022-11-27T23:14:24.797Z,7.15
2022-11-27T23:16:51.473Z,4.30
2022-11-27T23:19:18.341Z,6.85
2022-11-27T23:21:44.928Z,6.18
2022-11-27T23:24:14.120Z,6.22
2022-11-27T23:26:41.331Z,5.90
2022-11-27T23:29:08.245Z,7.63
2022-11-27T23:31:36.330Z,4.80
2022-11-27T23:34:07.567Z,5.53
2022-11-27T23:36:34.836Z,5.10
2022-11-27T23:39:03.740Z,6.85
2022-11-27T23:41:31.628Z,5.57
2022-11-27T23:43:58.462Z,4.18
2022-11-27T23:46:28.505Z,5.15
2022-11-27T23:48:57.770Z,5.85
2022-11-27T23:51:27.145Z,3.43
2022-11-27T23:53:54.482Z,4.22
2022-11-27T23:56:27.645Z,5.47
2022-11-27T23:58:56.517Z,4.40
